createdAt,value
2019-02-28T00:01:47.213Z,7.70
2019-02-28T00:04:32.754Z,7.70
2019-02-28T00:07:01.240Z,7.70
2019-02-28T00:09:50.411Z,7.70
2019-02-28T00:12:20.284Z,7.70
2019-02-28T00:15:09.469Z,7.70
2019-02-28T00:17:51.764Z,7.60
2019-02-28T00:20:33.363Z,7.60
2019-02-28T00:23:14.856Z,7.60
2019-02-28T00:25:57.169Z,7.60
2019-02-28T00:28:38.626Z,7.60
2019-02-28T00:34:23.000Z,7.50
2019-02-28T00:37:00.420Z,7.50
2019-02-28T00:39:31.448Z,7.50
2019-02-28T00:42:33.270Z,7.50
2019-02-28T00:45:14.765Z,7.50
2019-02-28T00:47:56.186Z,7.50
2019-02-28T00:50:38.465Z,7.50
2019-02-28T00:53:19.948Z,7.60
2019-02-28T00:56:02.279Z,7.60
2019-02-28T00:58:43.781Z,7.70
2019-02-28T01:01:25.117Z,7.60
2019-02-28T01:04:07.416Z,7.60
2019-02-28T01:06:49.801Z,7.60
2019-02-28T01:09:32.082Z,7.60
2019-02-28T01:12:18.712Z,7.60
2019-02-28T01:14:57.068Z,7.50
2019-02-28T01:17:39.385Z,7.50
2019-02-28T01:20:20.796Z,7.50
2019-02-28T01:23:03.076Z,7.50
2019-02-28T01:25:45.282Z,7.50
2019-02-28T01:28:27.647Z,7.50
2019-02-28T01:31:11.622Z,7.50
2019-02-28T01:33:53.084Z,7.50
2019-02-28T01:36:35.449Z,7.50
2019-02-28T01:39:15.700Z,7.50
2019-02-28T01:41:57.888Z,7.50
2019-02-28T01:44:39.537Z,7.50
2019-02-28T01:47:09.663Z,7.40
2019-02-28T01:53:01.820Z,7.40
2019-02-28T01:55:44.059Z,7.40
2019-02-28T01:58:25.828Z,7.40
2019-02-28T02:01:07.651Z,7.40
2019-02-28T02:03:49.968Z,7.40
2019-02-28T02:06:30.105Z,7.40
2019-02-28T02:09:19.421Z,7.30
2019-02-28T02:12:20.728Z,7.30
2019-02-28T02:15:02.256Z,7.20
2019-02-28T02:17:43.663Z,7.20
2019-02-28T02:20:26.307Z,7.20
2019-02-28T02:23:09.103Z,7.10
2019-02-28T02:25:50.538Z,7.10
2019-02-28T02:28:31.952Z,7.10
2019-02-28T02:31:14.225Z,7.10
2019-02-28T02:33:55.869Z,7.10
2019-02-28T02:36:38.093Z,7.10
2019-02-28T02:39:20.337Z,7.00
2019-02-28T02:42:10.059Z,7.00
2019-02-28T02:44:46.599Z,6.90
2019-02-28T02:47:31.405Z,6.90
2019-02-28T02:50:11.071Z,6.90
2019-02-28T02:52:53.329Z,6.90
2019-02-28T02:55:35.418Z,6.90
2019-02-28T02:58:17.014Z,6.90
2019-02-28T03:00:59.245Z,6.90
2019-02-28T03:03:44.291Z,6.90
2019-02-28T03:06:24.536Z,6.80
2019-02-28T03:09:10.180Z,6.80
2019-02-28T03:11:50.978Z,6.80
2019-02-28T03:14:32.650Z,6.70
2019-02-28T03:17:14.829Z,6.70
2019-02-28T03:19:56.364Z,6.60
2019-02-28T03:22:38.319Z,6.60
2019-02-28T03:25:19.711Z,6.60
2019-02-28T03:28:01.330Z,6.70
2019-02-28T03:30:43.213Z,6.70
2019-02-28T03:33:28.429Z,6.70
2019-02-28T03:36:08.584Z,6.70
2019-02-28T03:38:50.813Z,6.70
2019-02-28T03:41:32.943Z,6.70
2019-02-28T03:44:20.098Z,6.60
2019-02-28T03:46:58.364Z,6.60
2019-02-28T03:49:39.780Z,6.60
2019-02-28T03:52:21.185Z,6.60
2019-02-28T03:55:04.542Z,6.70
2019-02-28T03:57:45.905Z,6.80
2019-02-28T04:00:32.769Z,6.80
2019-02-28T04:03:11.041Z,6.80
2019-02-28T04:05:52.544Z,6.80
2019-02-28T04:08:33.963Z,6.70
2019-02-28T04:11:15.415Z,6.70
2019-02-28T04:13:57.172Z,6.70
2019-02-28T04:16:38.651Z,6.70
2019-02-28T04:19:22.597Z,6.70
2019-02-28T04:22:02.782Z,6.80
2019-02-28T04:24:46.238Z,6.80
2019-02-28T04:27:28.033Z,6.90
2019-02-28T04:30:09.709Z,6.80
2019-02-28T04:32:52.043Z,6.80
2019-02-28T04:35:33.525Z,6.80
2019-02-28T04:38:20.439Z,6.70
2019-02-28T04:40:59.893Z,6.80
2019-02-28T04:43:41.627Z,6.70
2019-02-28T04:46:23.872Z,6.70
2019-02-28T04:49:05.328Z,6.70
2019-02-28T04:51:37.008Z,6.70
2019-02-28T04:54:45.579Z,6.60
2019-02-28T04:57:27.256Z,6.60
2019-02-28T05:00:09.564Z,6.70
2019-02-28T05:02:54.133Z,6.60
2019-02-28T05:05:33.059Z,6.60
2019-02-28T05:08:22.219Z,6.60
2019-02-28T05:11:03.796Z,6.50
2019-02-28T05:13:48.257Z,6.50
2019-02-28T05:16:29.219Z,6.50
2019-02-28T05:19:11.480Z,6.50
2019-02-28T05:21:53.564Z,6.50
2019-02-28T05:24:42.828Z,6.50
2019-02-28T05:27:45.907Z,6.50
2019-02-28T05:30:28.187Z,6.40
2019-02-28T05:33:10.320Z,6.40
2019-02-28T05:35:52.395Z,6.30
2019-02-28T05:38:33.844Z,6.30
2019-02-28T05:41:16.042Z,6.30
2019-02-28T05:43:57.821Z,6.20
2019-02-28T05:46:39.268Z,6.10
2019-02-28T05:49:21.140Z,6.00
2019-02-28T05:52:03.396Z,6.00
2019-02-28T05:54:47.197Z,5.90
2019-02-28T05:57:28.547Z,5.80
2019-02-28T06:00:09.512Z,5.80
2019-02-28T06:02:50.933Z,5.80
2019-02-28T06:05:33.186Z,5.70
2019-02-28T06:08:14.720Z,5.70
2019-02-28T06:11:00.629Z,5.60
2019-02-28T06:13:39.199Z,5.60
2019-02-28T06:16:21.423Z,5.60
2019-02-28T06:19:04.582Z,5.60
2019-02-28T06:21:46.303Z,5.60
2019-02-28T06:24:28.546Z,5.60
2019-02-28T06:27:10.765Z,5.60
2019-02-28T06:29:52.265Z,5.70
2019-02-28T06:32:33.847Z,5.80
2019-02-28T06:35:18.607Z,5.80
2019-02-28T06:37:59.263Z,5.90
2019-02-28T06:40:40.720Z,6.00
2019-02-28T06:43:22.470Z,6.00
2019-02-28T06:46:04.657Z,6.10
2019-02-28T06:48:46.553Z,6.20
2019-02-28T06:51:28.461Z,6.20
2019-02-28T06:54:09.970Z,6.30
2019-02-28T06:56:54.118Z,6.40
2019-02-28T06:59:36.127Z,6.40
2019-02-28T07:02:18.840Z,6.50
2019-02-28T07:05:00.250Z,6.60
2019-02-28T07:07:45.621Z,6.70
2019-02-28T07:10:25.580Z,6.80
2019-02-28T07:13:07.605Z,6.90
2019-02-28T07:15:49.732Z,6.90
2019-02-28T07:18:30.047Z,7.10
2019-02-28T07:24:02.369Z,7.30
2019-02-28T07:26:44.856Z,7.30
2019-02-28T07:29:27.037Z,7.40
2019-02-28T07:32:00.296Z,7.50
2019-02-28T07:35:07.568Z,7.60
2019-02-28T07:37:53.170Z,7.60
2019-02-28T07:40:33.341Z,7.70
2019-02-28T07:43:15.233Z,7.80
2019-02-28T07:45:55.529Z,7.90
2019-02-28T07:48:44.684Z,8.00
2019-02-28T07:51:26.712Z,8.10
2019-02-28T07:54:08.367Z,8.20
2019-02-28T07:56:50.372Z,8.40
2019-02-28T07:59:32.289Z,8.50
2019-02-28T08:02:12.512Z,8.60
2019-02-28T08:05:03.021Z,8.70
2019-02-28T08:08:04.249Z,8.90
2019-02-28T08:10:47.976Z,9.00
2019-02-28T08:13:29.494Z,9.10
2019-02-28T08:16:10.923Z,9.30
2019-02-28T08:18:52.515Z,9.30
2019-02-28T08:21:34.828Z,9.40
2019-02-28T08:24:16.384Z,9.50
2019-02-28T08:26:57.784Z,9.70
2019-02-28T08:29:44.788Z,9.80
2019-02-28T08:32:23.237Z,9.90
2019-02-28T08:35:05.519Z,10.00
2019-02-28T08:37:47.823Z,10.10
2019-02-28T08:40:30.003Z,10.20
2019-02-28T08:43:10.593Z,10.20
2019-02-28T08:46:02.840Z,10.30
2019-02-28T08:49:06.076Z,10.40
2019-02-28T08:51:53.379Z,10.50
2019-02-28T08:54:34.944Z,10.60
2019-02-28T08:57:17.260Z,10.70
2019-02-28T08:59:59.072Z,10.70
2019-02-28T09:02:41.500Z,10.80
2019-02-28T09:05:26.148Z,10.90
2019-02-28T09:08:07.831Z,11.00
2019-02-28T09:10:49.551Z,11.00
2019-02-28T09:13:31.783Z,11.10
2019-02-28T09:16:14.060Z,11.10
2019-02-28T09:18:54.162Z,11.20
2019-02-28T09:21:43.313Z,11.20
2019-02-28T09:24:25.983Z,11.20
2019-02-28T09:27:08.024Z,11.20
2019-02-28T09:29:54.507Z,11.30
2019-02-28T09:32:31.925Z,11.30
2019-02-28T09:35:21.043Z,11.40
2019-02-28T09:38:06.279Z,11.40
2019-02-28T09:40:46.792Z,11.40
2019-02-28T09:43:28.423Z,11.40
2019-02-28T09:46:12.479Z,11.50
2019-02-28T09:48:54.275Z,11.50
2019-02-28T09:51:35.855Z,11.50
2019-02-28T09:54:17.409Z,11.50
2019-02-28T09:57:01.202Z,11.50
2019-02-28T09:59:43.598Z,11.50
2019-02-28T10:02:28.780Z,11.60
2019-02-28T10:05:11.817Z,11.60
2019-02-28T10:08:01.634Z,11.60
2019-02-28T10:10:38.776Z,11.60
2019-02-28T10:13:20.348Z,11.70
2019-02-28T10:16:01.664Z,11.80
2019-02-28T10:18:43.101Z,11.90
2019-02-28T10:21:25.373Z,12.00
2019-02-28T10:24:07.714Z,12.20
2019-02-28T10:26:51.508Z,12.30
2019-02-28T10:29:34.167Z,12.40
2019-02-28T10:32:19.116Z,12.50
2019-02-28T10:35:01.323Z,12.60
2019-02-28T10:37:44.253Z,12.70
2019-02-28T10:40:27.305Z,13.00
2019-02-28T10:43:15.528Z,13.20
2019-02-28T10:46:07.148Z,13.50
2019-02-28T10:48:41.848Z,13.90
2019-02-28T10:51:13.964Z,14.20
2019-02-28T10:53:40.691Z,14.30
2019-02-28T10:56:10.800Z,14.40
2019-02-28T10:58:40.861Z,14.40
2019-02-28T11:01:12.251Z,14.40
2019-02-28T11:03:42.515Z,14.50
2019-02-28T11:06:12.545Z,14.70
2019-02-28T11:08:44.548Z,14.80
2019-02-28T11:11:14.748Z,14.90
2019-02-28T11:13:45.219Z,15.10
2019-02-28T11:16:15.360Z,15.30
2019-02-28T11:18:45.432Z,15.40
2019-02-28T11:21:15.753Z,15.40
2019-02-28T11:23:46.488Z,15.50
2019-02-28T11:26:17.580Z,15.70
2019-02-28T11:28:47.643Z,15.80
2019-02-28T11:31:19.185Z,15.60
2019-02-28T11:33:49.788Z,15.50
2019-02-28T11:36:19.837Z,15.50
2019-02-28T11:38:52.495Z,15.60
2019-02-28T11:41:21.725Z,15.50
2019-02-28T11:43:52.084Z,15.20
2019-02-28T11:46:22.112Z,14.90
2019-02-28T11:48:54.081Z,14.60
2019-02-28T11:51:23.878Z,14.10
2019-02-28T11:53:53.893Z,13.70
2019-02-28T11:56:25.573Z,13.30
2019-02-28T11:58:55.664Z,12.90
2019-02-28T12:01:25.708Z,12.60
2019-02-28T12:03:55.612Z,12.30
2019-02-28T12:06:26.306Z,12.10
2019-02-28T12:08:56.365Z,11.80
2019-02-28T12:11:26.317Z,11.60
2019-02-28T12:13:56.288Z,11.50
2019-02-28T12:16:26.328Z,11.30
2019-02-28T12:18:56.379Z,11.10
2019-02-28T12:21:26.331Z,10.90
2019-02-28T12:23:57.288Z,10.80
2019-02-28T12:26:28.389Z,10.70
2019-02-28T12:28:58.418Z,10.60
2019-02-28T12:31:28.382Z,10.50
2019-02-28T12:33:58.287Z,10.50
2019-02-28T12:36:28.324Z,10.40
2019-02-28T12:38:59.455Z,10.40
2019-02-28T12:44:12.443Z,10.30
2019-02-28T12:46:53.839Z,10.40
2019-02-28T12:49:35.542Z,10.40
2019-02-28T12:52:17.128Z,10.40
2019-02-28T12:54:58.605Z,10.40
2019-02-28T12:57:40.573Z,10.40
2019-02-28T13:00:23.392Z,10.40
2019-02-28T13:03:05.729Z,10.40
2019-02-28T13:05:49.247Z,10.40
2019-02-28T13:08:30.358Z,10.40
2019-02-28T13:11:12.755Z,10.40
2019-02-28T13:13:54.896Z,10.30
2019-02-28T13:16:36.336Z,10.30
2019-02-28T13:19:20.125Z,10.30
2019-02-28T13:22:02.368Z,10.40
2019-02-28T13:24:46.401Z,10.40
2019-02-28T13:27:27.334Z,10.40
2019-02-28T13:29:57.408Z,10.30
2019-02-28T13:32:27.392Z,10.30
2019-02-28T13:34:57.544Z,10.30
2019-02-28T13:37:27.512Z,10.30
2019-02-28T13:39:57.420Z,10.30
2019-02-28T13:42:27.460Z,10.40
2019-02-28T13:44:57.521Z,10.50
2019-02-28T13:47:28.437Z,10.60
2019-02-28T13:49:58.495Z,10.60
2019-02-28T13:52:28.744Z,10.60
2019-02-28T13:54:59.093Z,10.70
2019-02-28T13:57:29.111Z,10.70
2019-02-28T13:59:59.162Z,10.70
2019-02-28T14:02:33.617Z,10.70
2019-02-28T14:05:03.017Z,10.70
2019-02-28T14:07:33.747Z,10.70
2019-02-28T14:10:05.081Z,10.70
2019-02-28T14:12:34.964Z,10.70
2019-02-28T14:15:05.456Z,10.70
2019-02-28T14:17:36.431Z,10.80
2019-02-28T14:20:08.563Z,10.80
2019-02-28T14:22:38.592Z,10.80
2019-02-28T14:25:09.261Z,10.90
2019-02-28T14:27:39.393Z,10.90
2019-02-28T14:30:11.293Z,11.00
2019-02-28T14:32:42.275Z,11.00
2019-02-28T14:35:15.002Z,11.00
2019-02-28T14:37:45.028Z,11.10
2019-02-28T14:40:17.937Z,11.10
2019-02-28T14:42:46.815Z,11.20
2019-02-28T14:45:17.331Z,11.20
2019-02-28T14:47:56.498Z,11.20
2019-02-28T14:50:20.286Z,11.20
2019-02-28T14:52:51.247Z,11.20
2019-02-28T14:55:21.456Z,11.10
2019-02-28T14:57:51.485Z,11.10
2019-02-28T15:00:25.517Z,11.00
2019-02-28T15:02:55.464Z,11.00
2019-02-28T15:05:26.035Z,10.90
2019-02-28T15:07:56.532Z,10.90
2019-02-28T15:10:26.930Z,10.80
2019-02-28T15:12:58.656Z,10.80
2019-02-28T15:15:30.733Z,10.70
2019-02-28T15:18:00.697Z,10.70
2019-02-28T15:20:32.929Z,10.60
2019-02-28T15:23:02.612Z,10.50
2019-02-28T15:25:32.651Z,10.50
2019-02-28T15:28:02.671Z,10.50
2019-02-28T15:30:33.779Z,10.40
2019-02-28T15:33:05.036Z,10.40
2019-02-28T15:35:35.077Z,10.40
2019-02-28T15:38:05.630Z,10.40
2019-02-28T15:40:40.442Z,10.30
2019-02-28T15:43:16.961Z,10.30
2019-02-28T15:45:45.900Z,10.30
2019-02-28T15:48:16.968Z,10.30
2019-02-28T15:50:51.153Z,10.80
2019-02-28T15:53:18.877Z,10.30
2019-02-28T15:55:49.324Z,10.20
2019-02-28T15:58:20.119Z,10.20
2019-02-28T16:00:53.736Z,10.20
2019-02-28T16:03:23.576Z,10.20
2019-02-28T16:05:53.740Z,10.20
2019-02-28T16:08:23.768Z,10.20
2019-02-28T16:10:53.901Z,10.20
2019-02-28T16:13:25.841Z,10.20
2019-02-28T16:15:56.153Z,10.20
2019-02-28T16:18:26.496Z,10.20
2019-02-28T16:20:56.577Z,10.20
2019-02-28T16:23:40.193Z,10.20
2019-02-28T16:26:18.222Z,10.20
2019-02-28T16:28:48.475Z,10.20
2019-02-28T16:31:19.301Z,10.20
2019-02-28T16:33:51.967Z,10.20
2019-02-28T16:36:27.012Z,10.20
2019-02-28T16:39:01.092Z,10.20
2019-02-28T16:41:36.923Z,10.20
2019-02-28T16:44:07.777Z,10.20
2019-02-28T16:46:38.643Z,10.20
2019-02-28T16:49:10.610Z,10.20
2019-02-28T16:51:42.256Z,10.20
2019-02-28T16:54:19.350Z,10.20
2019-02-28T16:56:49.210Z,10.20
2019-02-28T16:59:19.164Z,10.20
2019-02-28T17:01:51.419Z,10.20
2019-02-28T17:04:25.730Z,10.10
2019-02-28T17:06:57.178Z,10.10
2019-02-28T17:09:35.327Z,10.00
2019-02-28T17:12:37.508Z,10.00
2019-02-28T17:15:13.635Z,10.00
2019-02-28T17:17:50.160Z,9.90
2019-02-28T17:20:20.516Z,9.90
2019-02-28T17:22:51.485Z,9.90
2019-02-28T17:25:22.589Z,9.90
2019-02-28T17:28:07.120Z,9.90
2019-02-28T17:30:46.603Z,9.90
2019-02-28T17:33:17.011Z,9.90
2019-02-28T17:35:49.126Z,9.90
2019-02-28T17:38:19.184Z,9.90
2019-02-28T17:40:49.653Z,9.90
2019-02-28T17:43:24.058Z,9.90
2019-02-28T17:45:52.245Z,10.00
2019-02-28T17:48:56.975Z,10.00
2019-02-28T17:51:44.039Z,10.00
2019-02-28T17:55:00.858Z,10.00
2019-02-28T17:57:55.109Z,10.00
2019-02-28T18:00:54.492Z,10.00
2019-02-28T18:04:11.064Z,10.00
2019-02-28T18:07:26.696Z,9.90
2019-02-28T18:10:26.391Z,9.80
2019-02-28T18:13:25.904Z,9.80
2019-02-28T18:16:38.383Z,9.70
2019-02-28T18:19:43.795Z,9.70
2019-02-28T18:23:07.425Z,9.70
2019-02-28T18:26:38.530Z,9.60
2019-02-28T18:29:32.259Z,9.60
2019-02-28T18:32:02.295Z,9.60
2019-02-28T18:34:34.528Z,9.60
2019-02-28T18:37:04.772Z,9.60
2019-02-28T18:39:34.802Z,9.60
2019-02-28T18:42:05.004Z,9.60
2019-02-28T18:44:37.490Z,9.60
2019-02-28T18:47:07.616Z,9.50
2019-02-28T18:49:37.665Z,9.50
2019-02-28T18:52:07.691Z,9.50
2019-02-28T18:54:39.305Z,9.40
2019-02-28T18:57:09.448Z,9.40
2019-02-28T18:59:39.585Z,9.40
2019-02-28T19:02:09.812Z,9.40
2019-02-28T19:04:40.052Z,9.30
2019-02-28T19:07:10.075Z,9.30
2019-02-28T19:09:40.416Z,9.30
2019-02-28T19:12:10.444Z,9.30
2019-02-28T19:14:40.702Z,9.30
2019-02-28T19:17:10.656Z,9.30
2019-02-28T19:19:40.813Z,9.40
2019-02-28T19:22:11.139Z,9.40
2019-02-28T19:24:41.205Z,9.40
2019-02-28T19:27:11.324Z,9.40
2019-02-28T19:29:41.432Z,9.40
2019-02-28T19:32:11.455Z,9.50
2019-02-28T19:34:45.890Z,9.40
2019-02-28T19:37:15.992Z,9.50
2019-02-28T19:39:46.425Z,9.50
2019-02-28T19:42:16.540Z,9.50
2019-02-28T19:44:46.698Z,9.50
2019-02-28T19:47:17.167Z,9.40
2019-02-28T19:49:47.404Z,9.40
2019-02-28T19:52:17.454Z,9.40
2019-02-28T19:54:47.448Z,9.30
2019-02-28T19:57:17.573Z,9.20
2019-02-28T19:59:47.802Z,9.10
2019-02-28T20:02:18.010Z,9.10
2019-02-28T20:04:48.520Z,9.00
2019-02-28T20:07:18.653Z,9.00
2019-02-28T20:09:48.804Z,8.90
2019-02-28T20:12:18.933Z,8.90
2019-02-28T20:14:49.063Z,8.90
2019-02-28T20:17:19.024Z,8.80
2019-02-28T20:19:49.192Z,8.80
2019-02-28T20:22:19.231Z,8.80
2019-02-28T20:24:49.287Z,8.80
2019-02-28T20:27:19.236Z,8.70
2019-02-28T20:29:55.041Z,8.70
2019-02-28T20:32:21.080Z,8.70
2019-02-28T20:34:51.309Z,8.70
2019-02-28T20:37:21.215Z,8.70
2019-02-28T20:39:51.384Z,8.70
2019-02-28T20:42:21.471Z,8.70
2019-02-28T20:44:51.716Z,8.70
2019-02-28T20:47:21.592Z,8.60
2019-02-28T20:49:51.758Z,8.60
2019-02-28T20:52:21.842Z,8.60
2019-02-28T20:54:51.896Z,8.60
2019-02-28T20:57:21.836Z,8.60
2019-02-28T20:59:52.020Z,8.60
2019-02-28T21:02:21.992Z,8.60
2019-02-28T21:04:52.020Z,8.50
2019-02-28T21:07:22.312Z,8.50
2019-02-28T21:09:52.500Z,8.50
2019-02-28T21:12:22.708Z,8.50
2019-02-28T21:14:53.172Z,8.50
2019-02-28T21:17:29.402Z,8.50
2019-02-28T21:19:55.369Z,8.50
2019-02-28T21:22:26.042Z,8.50
2019-02-28T21:24:56.105Z,8.40
2019-02-28T21:27:26.596Z,8.40
2019-02-28T21:29:56.790Z,8.40
2019-02-28T21:32:27.256Z,8.40
2019-02-28T21:34:57.537Z,8.30
2019-02-28T21:37:27.812Z,8.30
2019-02-28T21:39:58.298Z,8.20
2019-02-28T21:42:28.529Z,8.20
2019-02-28T21:44:58.733Z,8.20
2019-02-28T21:47:28.992Z,8.10
2019-02-28T21:49:59.208Z,8.10
2019-02-28T21:52:29.394Z,8.10
2019-02-28T21:54:59.482Z,8.10
2019-02-28T21:57:29.941Z,8.10
2019-02-28T22:00:00.467Z,8.10
2019-02-28T22:02:30.797Z,8.10
2019-02-28T22:05:01.042Z,8.10
2019-02-28T22:07:31.180Z,8.10
2019-02-28T22:10:01.241Z,8.20
2019-02-28T22:12:31.162Z,8.20
2019-02-28T22:15:01.196Z,8.20
2019-02-28T22:17:31.241Z,8.20
2019-02-28T22:20:01.234Z,8.20
2019-02-28T22:22:31.367Z,8.20
2019-02-28T22:25:01.285Z,8.20
2019-02-28T22:27:31.335Z,8.10
2019-02-28T22:30:08.152Z,8.10
2019-02-28T22:32:43.707Z,8.10
2019-02-28T22:35:22.376Z,8.10
2019-02-28T22:37:52.476Z,8.10
2019-02-28T22:40:22.717Z,8.10
2019-02-28T22:42:53.122Z,8.20
2019-02-28T22:45:23.326Z,8.20
2019-02-28T22:47:53.668Z,8.20
2019-02-28T22:50:26.772Z,8.10
2019-02-28T22:52:57.052Z,8.10
2019-02-28T22:55:27.338Z,8.10
2019-02-28T22:57:57.368Z,8.10
2019-02-28T23:00:58.924Z,8.10
2019-02-28T23:03:30.107Z,8.10
2019-02-28T23:06:00.757Z,8.20
2019-02-28T23:08:31.000Z,8.20
2019-02-28T23:11:01.252Z,8.20
2019-02-28T23:13:31.560Z,8.20
2019-02-28T23:16:01.914Z,8.20
2019-02-28T23:18:32.074Z,8.20
2019-02-28T23:21:02.340Z,8.20
2019-02-28T23:23:32.414Z,8.20
2019-02-28T23:26:13.593Z,8.20
2019-02-28T23:28:53.888Z,8.20
2019-02-28T23:32:05.045Z,8.20
2019-02-28T23:34:54.885Z,8.20
2019-02-28T23:37:36.274Z,8.20
2019-02-28T23:40:18.459Z,8.30
2019-02-28T23:43:00.060Z,8.30
2019-02-28T23:45:41.622Z,8.30
2019-02-28T23:48:24.350Z,8.30
2019-02-28T23:51:06.205Z,8.30
2019-02-28T23:53:46.395Z,8.30
2019-02-28T23:56:35.661Z,8.30
2019-02-28T23:59:17.311Z,8.30
